sensor_id;sensor_type;location;lat;lon;timestamp;pressure;altitude;pressure_sealevel;temperature;humidity
46583;BME280;32309;48.858;8.252;2023-02-19T00:00:02;100988.19;;;9.08;87.01
46583;BME280;32309;48.858;8.252;2023-02-19T00:02:04;100986.66;;;9.03;87.74
46583;BME280;32309;48.858;8.252;2023-02-19T00:04:11;100978.97;;;9.01;88.24
46583;BME280;32309;48.858;8.252;2023-02-19T00:06:13;100980.78;;;8.99;88.00
46583;BME280;32309;48.858;8.252;2023-02-19T00:08:13;100978.97;;;9.01;88.47
46583;BME280;32309;48.858;8.252;2023-02-19T00:10:14;100974.00;;;8.96;89.09
46583;BME280;32309;48.858;8.252;2023-02-19T00:12:14;100979.16;;;8.96;89.77
46583;BME280;32309;48.858;8.252;2023-02-19T00:14:15;100969.78;;;8.94;89.04
46583;BME280;32309;48.858;8.252;2023-02-19T00:16:24;100977.69;;;8.91;88.73
46583;BME280;32309;48.858;8.252;2023-02-19T00:18:26;100976.88;;;8.89;88.84
46583;BME280;32309;48.858;8.252;2023-02-19T00:20:26;100976.06;;;8.88;89.29
46583;BME280;32309;48.858;8.252;2023-02-19T00:22:26;100977.03;;;8.84;90.39
46583;BME280;32309;48.858;8.252;2023-02-19T00:24:26;100974.53;;;8.82;91.37
46583;BME280;32309;48.858;8.252;2023-02-19T00:26:27;100974.47;;;8.84;90.33
46583;BME280;32309;48.858;8.252;2023-02-19T00:28:28;100973.63;;;8.83;89.81
46583;BME280;32309;48.858;8.252;2023-02-19T00:30:28;100963.28;;;8.83;90.23
46583;BME280;32309;48.858;8.252;2023-02-19T00:32:29;100969.56;;;8.78;92.37
46583;BME280;32309;48.858;8.252;2023-02-19T00:34:29;100970.38;;;8.78;90.22
46583;BME280;32309;48.858;8.252;2023-02-19T00:36:29;100971.25;;;8.79;91.57
46583;BME280;32309;48.858;8.252;2023-02-19T00:38:31;100968.81;;;8.74;91.29
46583;BME280;32309;48.858;8.252;2023-02-19T00:40:34;100975.69;;;8.75;90.15
46583;BME280;32309;48.858;8.252;2023-02-19T00:42:35;100968.69;;;8.77;91.30
46583;BME280;32309;48.858;8.252;2023-02-19T00:44:35;100955.84;;;8.76;92.11
46583;BME280;32309;48.858;8.252;2023-02-19T00:46:36;100961.06;;;8.74;91.70
46583;BME280;32309;48.858;8.252;2023-02-19T00:48:38;100952.50;;;8.74;90.22
46583;BME280;32309;48.858;8.252;2023-02-19T00:50:38;100952.59;;;8.71;92.84
46583;BME280;32309;48.858;8.252;2023-02-19T00:52:39;100952.50;;;8.74;91.88
46583;BME280;32309;48.858;8.252;2023-02-19T00:54:39;100950.88;;;8.71;92.94
46583;BME280;32309;48.858;8.252;2023-02-19T00:56:39;100937.06;;;8.71;92.20
46583;BME280;32309;48.858;8.252;2023-02-19T00:58:40;100936.13;;;8.73;92.08
46583;BME280;32309;48.858;8.252;2023-02-19T01:00:40;100939.56;;;8.74;91.56
46583;BME280;32309;48.858;8.252;2023-02-19T01:02:40;100931.84;;;8.72;91.16
46583;BME280;32309;48.858;8.252;2023-02-19T01:04:40;100945.50;;;8.76;92.03
46583;BME280;32309;48.858;8.252;2023-02-19T01:06:41;100947.19;;;8.77;92.51
46583;BME280;32309;48.858;8.252;2023-02-19T01:08:41;100949.78;;;8.77;91.83
46583;BME280;32309;48.858;8.252;2023-02-19T01:10:42;100953.19;;;8.77;91.31
46583;BME280;32309;48.858;8.252;2023-02-19T01:12:43;100957.41;;;8.80;92.08
46583;BME280;32309;48.858;8.252;2023-02-19T01:14:43;100953.16;;;8.79;91.71
46583;BME280;32309;48.858;8.252;2023-02-19T01:16:43;100959.16;;;8.79;91.60
46583;BME280;32309;48.858;8.252;2023-02-19T01:18:44;100946.22;;;8.79;90.94
46583;BME280;32309;48.858;8.252;2023-02-19T01:20:45;100960.94;;;8.77;92.82
46583;BME280;32309;48.858;8.252;2023-02-19T01:22:45;100949.63;;;8.80;92.60
46583;BME280;32309;48.858;8.252;2023-02-19T01:24:45;100955.59;;;8.82;92.42
46583;BME280;32309;48.858;8.252;2023-02-19T01:26:46;100963.34;;;8.82;90.79
46583;BME280;32309;48.858;8.252;2023-02-19T01:28:46;100953.84;;;8.82;91.50
46583;BME280;32309;48.858;8.252;2023-02-19T01:30:47;100958.13;;;8.83;91.94
46583;BME280;32309;48.858;8.252;2023-02-19T01:32:47;100956.38;;;8.84;92.59
46583;BME280;32309;48.858;8.252;2023-02-19T01:34:48;100954.75;;;8.81;91.93
46583;BME280;32309;48.858;8.252;2023-02-19T01:36:48;100945.34;;;8.80;92.35
46583;BME280;32309;48.858;8.252;2023-02-19T01:38:48;100946.09;;;8.82;92.51
46583;BME280;32309;48.858;8.252;2023-02-19T01:40:58;100951.41;;;8.79;92.11
46583;BME280;32309;48.858;8.252;2023-02-19T01:43:00;100949.63;;;8.80;91.97
46583;BME280;32309;48.858;8.252;2023-02-19T01:45:17;100959.97;;;8.80;91.73
46583;BME280;32309;48.858;8.252;2023-02-19T01:47:26;100964.31;;;8.79;92.42
46583;BME280;32309;48.858;8.252;2023-02-19T01:49:28;100966.00;;;8.80;90.89
46583;BME280;32309;48.858;8.252;2023-02-19T01:51:30;100974.72;;;8.78;90.86
46583;BME280;32309;48.858;8.252;2023-02-19T01:53:33;100973.88;;;8.77;91.45
46583;BME280;32309;48.858;8.252;2023-02-19T01:55:38;100963.59;;;8.76;91.04
46583;BME280;32309;48.858;8.252;2023-02-19T01:57:44;100948.97;;;8.75;92.40
46583;BME280;32309;48.858;8.252;2023-02-19T01:59:47;100947.34;;;8.72;92.39
46583;BME280;32309;48.858;8.252;2023-02-19T02:01:54;100940.47;;;8.73;92.25
46583;BME280;32309;48.858;8.252;2023-02-19T02:03:54;100931.84;;;8.72;92.73
46583;BME280;32309;48.858;8.252;2023-02-19T02:05:56;100933.53;;;8.73;91.65
46583;BME280;32309;48.858;8.252;2023-02-19T02:08:01;100924.22;;;8.69;92.76
46583;BME280;32309;48.858;8.252;2023-02-19T02:10:20;100936.38;;;8.67;91.34
46583;BME280;32309;48.858;8.252;2023-02-19T02:12:21;100932.03;;;8.68;91.45
46583;BME280;32309;48.858;8.252;2023-02-19T02:14:23;100927.69;;;8.68;91.48
46583;BME280;32309;48.858;8.252;2023-02-19T02:16:37;100925.97;;;8.69;91.92
46583;BME280;32309;48.858;8.252;2023-02-19T02:20:57;100923.38;;;8.69;92.03
46583;BME280;32309;48.858;8.252;2023-02-19T02:32:39;100935.38;;;8.70;91.00
46583;BME280;32309;48.858;8.252;2023-02-19T02:35:08;100930.19;;;8.71;91.02
46583;BME280;32309;48.858;8.252;2023-02-19T02:37:12;100936.19;;;8.72;91.45
46583;BME280;32309;48.858;8.252;2023-02-19T02:39:16;100930.13;;;8.73;91.52
46583;BME280;32309;48.858;8.252;2023-02-19T02:41:21;100928.28;;;8.75;91.05
46583;BME280;32309;48.858;8.252;2023-02-19T02:43:22;100927.47;;;8.74;91.48
46583;BME280;32309;48.858;8.252;2023-02-19T02:47:36;100923.09;;;8.76;91.31
46583;BME280;32309;48.858;8.252;2023-02-19T02:49:40;100906.72;;;8.76;91.00
46583;BME280;32309;48.858;8.252;2023-02-19T02:52:01;100920.44;;;8.78;90.56
46583;BME280;32309;48.858;8.252;2023-02-19T02:54:22;100920.50;;;8.76;90.58
46583;BME280;32309;48.858;8.252;2023-02-19T02:56:52;100917.97;;;8.75;90.27
46583;BME280;32309;48.858;8.252;2023-02-19T02:58:53;100912.78;;;8.75;90.28
46583;BME280;32309;48.858;8.252;2023-02-19T03:00:58;100911.91;;;8.76;90.16
46583;BME280;32309;48.858;8.252;2023-02-19T03:03:23;100908.41;;;8.77;90.24
46583;BME280;32309;48.858;8.252;2023-02-19T03:05:24;100911.00;;;8.77;89.66
46583;BME280;32309;48.858;8.252;2023-02-19T03:07:46;100901.50;;;8.77;89.67
46583;BME280;32309;48.858;8.252;2023-02-19T03:09:59;100905.69;;;8.80;89.74
46583;BME280;32309;48.858;8.252;2023-02-19T03:12:01;100900.53;;;8.80;89.44
46583;BME280;32309;48.858;8.252;2023-02-19T03:14:25;100898.97;;;8.76;89.00
46583;BME280;32309;48.858;8.252;2023-02-19T03:16:55;100899.75;;;8.78;88.41
46583;BME280;32309;48.858;8.252;2023-02-19T03:19:20;100892.91;;;8.77;88.63
46583;BME280;32309;48.858;8.252;2023-02-19T03:21:22;100898.97;;;8.76;88.23
46583;BME280;32309;48.858;8.252;2023-02-19T03:23:25;100898.16;;;8.75;88.55
46583;BME280;32309;48.858;8.252;2023-02-19T03:25:47;100898.06;;;8.77;88.19
46583;BME280;32309;48.858;8.252;2023-02-19T03:28:04;100892.97;;;8.75;87.30
46583;BME280;32309;48.858;8.252;2023-02-19T03:30:08;100901.50;;;8.77;87.26
46583;BME280;32309;48.858;8.252;2023-02-19T03:32:14;100904.06;;;8.77;86.90
46583;BME280;32309;48.858;8.252;2023-02-19T03:34:21;100893.03;;;8.74;87.10
46583;BME280;32309;48.858;8.252;2023-02-19T03:36:26;100899.03;;;8.74;86.85
46583;BME280;32309;48.858;8.252;2023-02-19T03:38:41;100909.38;;;8.74;86.70
46583;BME280;32309;48.858;8.252;2023-02-19T03:52:52;100914.53;;;8.74;86.49
46583;BME280;32309;48.858;8.252;2023-02-19T03:55:33;100915.28;;;8.78;86.82
46583;BME280;32309;48.858;8.252;2023-02-19T04:02:28;100936.78;;;8.78;86.01
46583;BME280;32309;48.858;8.252;2023-02-19T04:04:35;100930.72;;;8.79;86.31
46583;BME280;32309;48.858;8.252;2023-02-19T04:06:37;100935.88;;;8.79;86.45
46583;BME280;32309;48.858;8.252;2023-02-19T04:08:42;100927.25;;;8.80;86.28
46583;BME280;32309;48.858;8.252;2023-02-19T04:10:46;100934.13;;;8.80;86.14
46583;BME280;32309;48.858;8.252;2023-02-19T04:12:53;100934.06;;;8.81;85.70
46583;BME280;32309;48.858;8.252;2023-02-19T04:15:00;100941.81;;;8.81;86.20
46583;BME280;32309;48.858;8.252;2023-02-19T04:17:02;100947.91;;;8.80;85.96
46583;BME280;32309;48.858;8.252;2023-02-19T04:19:09;100957.31;;;8.81;86.54
46583;BME280;32309;48.858;8.252;2023-02-19T04:21:12;100956.56;;;8.79;86.59
46583;BME280;32309;48.858;8.252;2023-02-19T04:23:13;100952.34;;;8.77;87.23
46583;BME280;32309;48.858;8.252;2023-02-19T04:25:17;100959.28;;;8.76;87.78
46583;BME280;32309;48.858;8.252;2023-02-19T04:27:19;100961.06;;;8.74;87.66
46583;BME280;32309;48.858;8.252;2023-02-19T04:29:19;100957.66;;;8.74;88.62
46583;BME280;32309;48.858;8.252;2023-02-19T04:31:19;100965.44;;;8.72;88.82
46583;BME280;32309;48.858;8.252;2023-02-19T04:33:20;100966.41;;;8.70;89.06
46583;BME280;32309;48.858;8.252;2023-02-19T04:35:20;100975.84;;;8.71;89.49
46583;BME280;32309;48.858;8.252;2023-02-19T04:37:20;100975.91;;;8.69;89.16
46583;BME280;32309;48.858;8.252;2023-02-19T04:39:21;100977.66;;;8.69;88.64
46583;BME280;32309;48.858;8.252;2023-02-19T04:41:21;100994.13;;;8.66;89.90
46583;BME280;32309;48.858;8.252;2023-02-19T04:43:21;100984.81;;;8.62;90.09
46583;BME280;32309;48.858;8.252;2023-02-19T04:45:22;100997.75;;;8.60;91.21
46583;BME280;32309;48.858;8.252;2023-02-19T04:47:22;101003.00;;;8.59;90.77
46583;BME280;32309;48.858;8.252;2023-02-19T04:49:22;100996.16;;;8.58;90.42
46583;BME280;32309;48.858;8.252;2023-02-19T04:51:22;101003.06;;;8.57;91.58
46583;BME280;32309;48.858;8.252;2023-02-19T04:53:23;101006.50;;;8.58;91.96
46583;BME280;32309;48.858;8.252;2023-02-19T04:55:23;101008.16;;;8.59;92.35
46583;BME280;32309;48.858;8.252;2023-02-19T04:57:23;101018.63;;;8.56;92.30
46583;BME280;32309;48.858;8.252;2023-02-19T04:59:24;101025.53;;;8.55;92.49
46583;BME280;32309;48.858;8.252;2023-02-19T05:01:24;101022.22;;;8.52;93.69
46583;BME280;32309;48.858;8.252;2023-02-19T05:03:25;101021.34;;;8.51;93.72
46583;BME280;32309;48.858;8.252;2023-02-19T05:05:25;101028.34;;;8.49;94.32
46583;BME280;32309;48.858;8.252;2023-02-19T05:07:26;101029.28;;;8.46;93.90
46583;BME280;32309;48.858;8.252;2023-02-19T05:09:26;101031.03;;;8.46;94.10
46583;BME280;32309;48.858;8.252;2023-02-19T05:11:26;101027.63;;;8.44;92.92
46583;BME280;32309;48.858;8.252;2023-02-19T05:13:27;101027.69;;;8.42;94.01
46583;BME280;32309;48.858;8.252;2023-02-19T05:15:27;101024.25;;;8.42;93.59
46583;BME280;32309;48.858;8.252;2023-02-19T05:17:28;101020.16;;;8.36;94.53
46583;BME280;32309;48.858;8.252;2023-02-19T05:19:28;101008.94;;;8.37;93.86
46583;BME280;32309;48.858;8.252;2023-02-19T05:21:28;101010.66;;;8.37;93.61
46583;BME280;32309;48.858;8.252;2023-02-19T05:23:28;101015.94;;;8.33;93.57
46583;BME280;32309;48.858;8.252;2023-02-19T05:25:29;101010.84;;;8.32;93.73
46583;BME280;32309;48.858;8.252;2023-02-19T05:27:29;101013.53;;;8.29;94.21
46583;BME280;32309;48.858;8.252;2023-02-19T05:29:30;101006.69;;;8.28;94.16
46583;BME280;32309;48.858;8.252;2023-02-19T05:31:31;101001.59;;;8.26;94.30
46583;BME280;32309;48.858;8.252;2023-02-19T05:33:32;100997.44;;;8.22;95.01
46583;BME280;32309;48.858;8.252;2023-02-19T05:35:33;100996.50;;;8.23;93.79
46583;BME280;32309;48.858;8.252;2023-02-19T05:37:38;100994.03;;;8.20;94.80
46583;BME280;32309;48.858;8.252;2023-02-19T05:39:38;100999.22;;;8.20;94.56
46583;BME280;32309;48.858;8.252;2023-02-19T05:41:39;100999.28;;;8.19;94.80
46583;BME280;32309;48.858;8.252;2023-02-19T05:43:40;100994.94;;;8.19;93.50
46583;BME280;32309;48.858;8.252;2023-02-19T05:45:42;100997.53;;;8.19;94.38
46583;BME280;32309;48.858;8.252;2023-02-19T05:47:43;100991.53;;;8.19;93.90
46583;BME280;32309;48.858;8.252;2023-02-19T05:49:43;100996.78;;;8.15;95.27
46583;BME280;32309;48.858;8.252;2023-02-19T05:51:43;100990.91;;;8.12;95.59
46583;BME280;32309;48.858;8.252;2023-02-19T05:53:44;100998.59;;;8.13;94.18
46583;BME280;32309;48.858;8.252;2023-02-19T05:55:45;100999.47;;;8.12;95.23
46583;BME280;32309;48.858;8.252;2023-02-19T05:57:46;100999.41;;;8.14;94.65
46583;BME280;32309;48.858;8.252;2023-02-19T05:59:47;101001.16;;;8.13;94.34
46583;BME280;32309;48.858;8.252;2023-02-19T06:01:48;101013.97;;;8.16;nan
46583;BME280;32309;48.858;8.252;2023-02-19T06:03:50;101009.66;;;8.17;94.62
46583;BME280;32309;48.858;8.252;2023-02-19T06:05:50;101019.13;;;8.16;94.26
46583;BME280;32309;48.858;8.252;2023-02-19T06:07:50;101012.28;;;8.15;94.87
46583;BME280;32309;48.858;8.252;2023-02-19T06:09:51;101019.13;;;8.16;94.11
46583;BME280;32309;48.858;8.252;2023-02-19T06:11:51;101028.56;;;8.18;93.85
46583;BME280;32309;48.858;8.252;2023-02-19T06:13:51;101022.56;;;8.17;95.11
46583;BME280;32309;48.858;8.252;2023-02-19T06:15:51;101015.66;;;8.18;93.82
46583;BME280;32309;48.858;8.252;2023-02-19T06:17:52;101026.03;;;8.16;95.21
46583;BME280;32309;48.858;8.252;2023-02-19T06:19:52;101027.75;;;8.15;95.13
46583;BME280;32309;48.858;8.252;2023-02-19T06:21:52;101032.16;;;8.13;95.53
46583;BME280;32309;48.858;8.252;2023-02-19T06:23:53;101032.97;;;8.14;95.94
46583;BME280;32309;48.858;8.252;2023-02-19T06:25:53;101030.34;;;8.15;95.56
46583;BME280;32309;48.858;8.252;2023-02-19T06:27:53;101042.47;;;8.13;94.72
46583;BME280;32309;48.858;8.252;2023-02-19T06:29:54;101031.31;;;8.13;94.25
46583;BME280;32309;48.858;8.252;2023-02-19T06:31:54;101046.00;;;8.11;94.25
46583;BME280;32309;48.858;8.252;2023-02-19T06:33:54;101040.03;;;8.10;94.43
46583;BME280;32309;48.858;8.252;2023-02-19T06:35:59;101050.38;;;8.09;95.01
46583;BME280;32309;48.858;8.252;2023-02-19T06:38:01;101055.53;;;8.09;94.83
46583;BME280;32309;48.858;8.252;2023-02-19T06:40:02;101065.84;;;8.10;94.34
46583;BME280;32309;48.858;8.252;2023-02-19T06:42:03;101059.81;;;8.10;94.86
46583;BME280;32309;48.858;8.252;2023-02-19T06:44:03;101058.91;;;8.11;93.63
46583;BME280;32309;48.858;8.252;2023-02-19T06:46:04;101075.38;;;8.08;94.82
46583;BME280;32309;48.858;8.252;2023-02-19T06:48:05;101077.88;;;8.10;94.30
46583;BME280;32309;48.858;8.252;2023-02-19T06:50:05;101077.81;;;8.11;94.25
46583;BME280;32309;48.858;8.252;2023-02-19T06:52:06;101088.16;;;8.11;94.15
46583;BME280;32309;48.858;8.252;2023-02-19T06:54:06;101093.28;;;8.13;93.86
46583;BME280;32309;48.858;8.252;2023-02-19T06:56:20;101100.13;;;8.14;94.27
46583;BME280;32309;48.858;8.252;2023-02-19T06:58:25;101104.44;;;8.13;94.23
46583;BME280;32309;48.858;8.252;2023-02-19T07:00:26;101095.75;;;8.16;94.22
46583;BME280;32309;48.858;8.252;2023-02-19T07:02:26;101099.22;;;8.15;93.88
46583;BME280;32309;48.858;8.252;2023-02-19T07:04:26;101095.81;;;8.14;93.99
46583;BME280;32309;48.858;8.252;2023-02-19T07:06:27;101097.47;;;8.15;93.92
46583;BME280;32309;48.858;8.252;2023-02-19T07:08:27;101086.19;;;8.18;93.28
46583;BME280;32309;48.858;8.252;2023-02-19T07:10:28;101097.41;;;8.19;92.83
46583;BME280;32309;48.858;8.252;2023-02-19T07:12:28;101096.44;;;8.21;92.60
46583;BME280;32309;48.858;8.252;2023-02-19T07:14:28;101105.03;;;8.22;92.62
46583;BME280;32309;48.858;8.252;2023-02-19T07:16:29;101101.50;;;8.24;92.40
46583;BME280;32309;48.858;8.252;2023-02-19T07:18:29;101109.19;;;8.26;91.49
46583;BME280;32309;48.858;8.252;2023-02-19T07:20:30;101112.63;;;8.26;92.45
46583;BME280;32309;48.858;8.252;2023-02-19T07:22:30;101114.28;;;8.27;92.54
46583;BME280;32309;48.858;8.252;2023-02-19T07:24:30;101112.63;;;8.26;92.97
46583;BME280;32309;48.858;8.252;2023-02-19T07:26:31;101128.19;;;8.25;93.07
46583;BME280;32309;48.858;8.252;2023-02-19T07:28:31;101123.91;;;8.24;93.51
46583;BME280;32309;48.858;8.252;2023-02-19T07:30:32;101130.03;;;8.21;94.23
46583;BME280;32309;48.858;8.252;2023-02-19T07:32:33;101123.97;;;8.22;93.99
46583;BME280;32309;48.858;8.252;2023-02-19T07:34:33;101117.09;;;8.21;94.88
46583;BME280;32309;48.858;8.252;2023-02-19T07:36:33;101121.38;;;8.22;95.20
46583;BME280;32309;48.858;8.252;2023-02-19T07:38:33;101130.84;;;8.22;94.93
46583;BME280;32309;48.858;8.252;2023-02-19T07:40:34;101142.19;;;8.18;94.66
46583;BME280;32309;48.858;8.252;2023-02-19T07:42:35;101139.59;;;8.18;95.34
46583;BME280;32309;48.858;8.252;2023-02-19T07:44:36;101135.25;;;8.20;95.42
46583;BME280;32309;48.858;8.252;2023-02-19T07:46:36;101146.41;;;8.20;95.22
46583;BME280;32309;48.858;8.252;2023-02-19T07:48:37;101145.50;;;8.21;94.94
46583;BME280;32309;48.858;8.252;2023-02-19T07:50:37;101149.81;;;8.21;95.12
46583;BME280;32309;48.858;8.252;2023-02-19T07:52:38;101157.63;;;8.19;95.18
46583;BME280;32309;48.858;8.252;2023-02-19T07:54:38;101153.31;;;8.20;94.96
46583;BME280;32309;48.858;8.252;2023-02-19T07:56:38;101159.19;;;8.23;94.74
46583;BME280;32309;48.858;8.252;2023-02-19T07:58:39;101163.53;;;8.23;94.39
46583;BME280;32309;48.858;8.252;2023-02-19T08:00:39;101160.97;;;8.23;94.53
46583;BME280;32309;48.858;8.252;2023-02-19T08:02:40;101163.41;;;8.26;94.49
46583;BME280;32309;48.858;8.252;2023-02-19T08:04:58;101166.88;;;8.26;94.09
46583;BME280;32309;48.858;8.252;2023-02-19T08:06:59;101163.34;;;8.29;94.66
46583;BME280;32309;48.858;8.252;2023-02-19T08:08:59;101163.28;;;8.30;93.81
46583;BME280;32309;48.858;8.252;2023-02-19T08:11:00;101166.69;;;8.31;93.41
46583;BME280;32309;48.858;8.252;2023-02-19T08:13:20;101165.81;;;8.32;93.73
46583;BME280;32309;48.858;8.252;2023-02-19T08:15:24;101170.91;;;8.33;93.78
46583;BME280;32309;48.858;8.252;2023-02-19T08:17:24;101172.56;;;8.36;93.16
46583;BME280;32309;48.858;8.252;2023-02-19T08:19:25;101176.03;;;8.35;92.79
46583;BME280;32309;48.858;8.252;2023-02-19T08:21:25;101161.34;;;8.37;92.98
46583;BME280;32309;48.858;8.252;2023-02-19T08:23:26;101175.94;;;8.38;93.01
46583;BME280;32309;48.858;8.252;2023-02-19T08:25:27;101165.56;;;8.40;93.20
46583;BME280;32309;48.858;8.252;2023-02-19T08:27:28;101169.84;;;8.41;92.08
46583;BME280;32309;48.858;8.252;2023-02-19T08:29:28;101173.25;;;8.41;92.45
46583;BME280;32309;48.858;8.252;2023-02-19T08:31:28;101182.69;;;8.42;91.90
46583;BME280;32309;48.858;8.252;2023-02-19T08:33:29;101185.28;;;8.42;92.57
46583;BME280;32309;48.858;8.252;2023-02-19T08:35:29;101188.63;;;8.44;91.80
46583;BME280;32309;48.858;8.252;2023-02-19T08:37:30;101188.63;;;8.46;91.99
46583;BME280;32309;48.858;8.252;2023-02-19T08:39:30;101192.94;;;8.45;91.85
46583;BME280;32309;48.858;8.252;2023-02-19T08:41:31;101192.81;;;8.48;92.08
46583;BME280;32309;48.858;8.252;2023-02-19T08:43:31;101196.28;;;8.49;91.23
46583;BME280;32309;48.858;8.252;2023-02-19T08:45:32;101201.44;;;8.49;91.62
46583;BME280;32309;48.858;8.252;2023-02-19T08:47:33;101203.28;;;8.45;92.01
46583;BME280;32309;48.858;8.252;2023-02-19T08:49:34;101199.81;;;8.46;91.60
46583;BME280;32309;48.858;8.252;2023-02-19T08:51:35;101198.91;;;8.47;91.13
46583;BME280;32309;48.858;8.252;2023-02-19T08:53:36;101201.44;;;8.49;91.75
46583;BME280;32309;48.858;8.252;2023-02-19T08:55:37;101211.78;;;8.49;91.77
46583;BME280;32309;48.858;8.252;2023-02-19T08:57:37;101209.06;;;8.52;91.15
46583;BME280;32309;48.858;8.252;2023-02-19T08:59:38;101205.59;;;8.53;90.85
46583;BME280;32309;48.858;8.252;2023-02-19T09:01:38;101205.59;;;8.53;91.05
46583;BME280;32309;48.858;8.252;2023-02-19T09:03:39;101202.97;;;8.55;91.28
46583;BME280;32309;48.858;8.252;2023-02-19T09:05:39;101209.88;;;8.54;90.97
46583;BME280;32309;48.858;8.252;2023-02-19T09:07:40;101212.34;;;8.57;91.18
46583;BME280;32309;48.858;8.252;2023-02-19T09:09:41;101210.56;;;8.59;91.23
46583;BME280;32309;48.858;8.252;2023-02-19T09:11:41;101205.56;;;8.55;91.63
46583;BME280;32309;48.858;8.252;2023-02-19T09:13:50;101201.25;;;8.55;91.29
46583;BME280;32309;48.858;8.252;2023-02-19T09:15:51;101200.28;;;8.58;91.45
46583;BME280;32309;48.858;8.252;2023-02-19T09:17:51;101209.78;;;8.57;91.72
46583;BME280;32309;48.858;8.252;2023-02-19T09:19:52;101196.78;;;8.59;92.35
46583;BME280;32309;48.858;8.252;2023-02-19T09:21:52;101195.84;;;8.61;91.51
46583;BME280;32309;48.858;8.252;2023-02-19T09:23:53;101195.69;;;8.66;91.17
46583;BME280;32309;48.858;8.252;2023-02-19T09:25:57;101203.34;;;8.69;90.83
46583;BME280;32309;48.858;8.252;2023-02-19T09:27:58;101202.31;;;8.73;90.50
46583;BME280;32309;48.858;8.252;2023-02-19T09:29:59;101199.53;;;8.79;90.48
46583;BME280;32309;48.858;8.252;2023-02-19T09:31:59;101204.59;;;8.82;89.89
46583;BME280;32309;48.858;8.252;2023-02-19T09:34:00;101212.13;;;8.89;89.71
46583;BME280;32309;48.858;8.252;2023-02-19T09:36:00;101219.78;;;8.92;89.85
46583;BME280;32309;48.858;8.252;2023-02-19T09:38:01;101221.47;;;8.93;89.72
46583;BME280;32309;48.858;8.252;2023-02-19T09:40:02;101215.28;;;8.97;89.50
46583;BME280;32309;48.858;8.252;2023-02-19T09:42:16;101224.69;;;8.99;89.38
46583;BME280;32309;48.858;8.252;2023-02-19T09:44:20;101227.16;;;9.03;89.14
46583;BME280;32309;48.858;8.252;2023-02-19T09:48:37;101239.19;;;9.04;88.78
46583;BME280;32309;48.858;8.252;2023-02-19T09:50:44;101239.03;;;9.08;88.50
46583;BME280;32309;48.858;8.252;2023-02-19T09:52:55;101245.78;;;9.12;88.33
46583;BME280;32309;48.858;8.252;2023-02-19T09:55:02;101255.22;;;9.13;88.25
46583;BME280;32309;48.858;8.252;2023-02-19T09:57:15;101261.31;;;9.12;88.49
46583;BME280;32309;48.858;8.252;2023-02-19T09:59:21;101269.75;;;9.18;88.32
46583;BME280;32309;48.858;8.252;2023-02-19T10:01:26;101267.09;;;9.19;88.13
46583;BME280;32309;48.858;8.252;2023-02-19T10:03:32;101256.63;;;9.22;88.21
46583;BME280;32309;48.858;8.252;2023-02-19T10:05:38;101253.09;;;9.25;87.90
46583;BME280;32309;48.858;8.252;2023-02-19T10:07:43;101254.78;;;9.26;87.43
46583;BME280;32309;48.858;8.252;2023-02-19T10:09:48;101260.84;;;9.25;86.72
46583;BME280;32309;48.858;8.252;2023-02-19T10:11:53;101257.22;;;9.30;86.78
46583;BME280;32309;48.858;8.252;2023-02-19T10:14:00;101251.91;;;9.33;86.93
46583;BME280;32309;48.858;8.252;2023-02-19T10:16:10;101255.28;;;9.36;87.24
46583;BME280;32309;48.858;8.252;2023-02-19T10:18:15;101252.66;;;9.37;86.52
46583;BME280;32309;48.858;8.252;2023-02-19T10:20:18;101248.38;;;9.36;86.24
46583;BME280;32309;48.858;8.252;2023-02-19T10:22:25;101249.94;;;9.40;86.31
46583;BME280;32309;48.858;8.252;2023-02-19T10:24:26;101248.31;;;9.38;86.13
46583;BME280;32309;48.858;8.252;2023-02-19T10:26:28;101250.84;;;9.39;86.56
46583;BME280;32309;48.858;8.252;2023-02-19T10:28:34;101255.94;;;9.42;86.63
46583;BME280;32309;48.858;8.252;2023-02-19T10:30:35;101254.09;;;9.44;86.59
46583;BME280;32309;48.858;8.252;2023-02-19T10:32:36;101259.22;;;9.46;86.60
46583;BME280;32309;48.858;8.252;2023-02-19T10:34:41;101268.69;;;9.47;85.51
46583;BME280;32309;48.858;8.252;2023-02-19T10:36:41;101275.59;;;9.46;85.57
46583;BME280;32309;48.858;8.252;2023-02-19T10:38:44;101274.69;;;9.47;85.73
46583;BME280;32309;48.858;8.252;2023-02-19T10:40:46;101275.59;;;9.46;85.50
46583;BME280;32309;48.858;8.252;2023-02-19T10:42:48;101278.19;;;9.46;85.83
46583;BME280;32309;48.858;8.252;2023-02-19T10:45:00;101273.91;;;9.45;85.44
46583;BME280;32309;48.858;8.252;2023-02-19T10:47:02;101279.16;;;9.44;85.60
46583;BME280;32309;48.858;8.252;2023-02-19T10:49:04;101277.47;;;9.43;85.00
46583;BME280;32309;48.858;8.252;2023-02-19T10:51:11;101277.41;;;9.44;85.44
46583;BME280;32309;48.858;8.252;2023-02-19T10:53:20;101272.22;;;9.44;84.96
46583;BME280;32309;48.858;8.252;2023-02-19T10:55:32;101272.91;;;9.49;85.62
46583;BME280;32309;48.858;8.252;2023-02-19T10:57:34;101268.53;;;9.52;84.59
46583;BME280;32309;48.858;8.252;2023-02-19T10:59:36;101269.22;;;9.55;83.55
46583;BME280;32309;48.858;8.252;2023-02-19T11:01:37;101267.38;;;9.59;82.39
46583;BME280;32309;48.858;8.252;2023-02-19T11:03:38;101263.78;;;9.63;82.13
46583;BME280;32309;48.858;8.252;2023-02-19T11:05:38;101258.44;;;9.68;82.16
46583;BME280;32309;48.858;8.252;2023-02-19T11:07:56;101265.25;;;9.70;81.32
46583;BME280;32309;48.858;8.252;2023-02-19T11:09:56;101261.63;;;9.74;80.78
46583;BME280;32309;48.858;8.252;2023-02-19T11:11:58;101257.28;;;9.75;80.20
46583;BME280;32309;48.858;8.252;2023-02-19T11:13:59;101261.50;;;9.77;80.18
46583;BME280;32309;48.858;8.252;2023-02-19T11:16:12;101262.31;;;9.79;80.37
46583;BME280;32309;48.858;8.252;2023-02-19T11:18:20;101257.00;;;9.82;80.05
46583;BME280;32309;48.858;8.252;2023-02-19T11:20:23;101265.78;;;9.78;78.29
46583;BME280;32309;48.858;8.252;2023-02-19T11:22:29;101270.91;;;9.80;79.40
46583;BME280;32309;48.858;8.252;2023-02-19T11:24:31;101276.91;;;9.80;78.78